createdAt,value
2022-10-12T00:01:13.713Z,99.90
2022-10-12T00:03:40.561Z,99.90
2022-10-12T00:06:14.816Z,99.90
2022-10-12T00:08:42.639Z,99.90
2022-10-12T00:11:13.550Z,99.90
2022-10-12T00:13:40.266Z,99.90
2022-10-12T00:16:09.140Z,99.90
2022-10-12T00:18:36.589Z,99.90
2022-10-12T00:21:07.147Z,99.90
2022-10-12T00:23:34.897Z,99.90
2022-10-12T00:26:05.895Z,99.90
2022-10-12T00:28:33.194Z,99.90
2022-10-12T00:31:00.286Z,99.90
2022-10-12T00:33:30.240Z,99.90
2022-10-12T00:35:57.055Z,99.90
2022-10-12T00:38:23.750Z,99.90
2022-10-12T00:40:50.730Z,99.90
2022-10-12T00:43:31.320Z,99.90
2022-10-12T00:46:01.586Z,99.90
2022-10-12T00:48:28.824Z,99.90
2022-10-12T00:50:57.699Z,99.90
2022-10-12T00:53:27.806Z,99.90
2022-10-12T00:55:59.347Z,99.90
2022-10-12T00:58:27.163Z,99.90
2022-10-12T01:00:53.919Z,99.90
2022-10-12T01:03:22.496Z,99.90
2022-10-12T01:05:49.370Z,99.90
2022-10-12T01:08:16.050Z,99.90
2022-10-12T01:10:42.695Z,99.90
2022-10-12T01:13:09.511Z,99.90
2022-10-12T01:15:44.661Z,99.90
2022-10-12T01:18:34.005Z,99.90
2022-10-12T01:21:18.419Z,99.90
2022-10-12T01:24:05.986Z,99.90
2022-10-12T01:26:51.437Z,99.90
2022-10-12T01:29:21.250Z,99.90
2022-10-12T01:31:59.951Z,99.90
2022-10-12T01:34:50.031Z,99.90
2022-10-12T01:37:45.410Z,99.90
2022-10-12T01:40:29.174Z,99.90
2022-10-12T01:42:57.979Z,99.90
2022-10-12T01:45:24.761Z,99.90
2022-10-12T01:47:53.860Z,99.90
2022-10-12T01:50:23.858Z,99.90
2022-10-12T01:53:16.598Z,99.90
2022-10-12T01:55:51.437Z,99.90
2022-10-12T01:58:42.192Z,99.90
2022-10-12T02:01:18.176Z,99.90
2022-10-12T02:03:44.941Z,99.90
2022-10-12T02:06:18.629Z,99.90
2022-10-12T02:09:31.775Z,99.90
2022-10-12T02:12:04.109Z,99.90
2022-10-12T02:14:38.816Z,99.90
2022-10-12T02:17:10.409Z,99.90
2022-10-12T02:19:41.823Z,99.90
2022-10-12T02:22:09.885Z,99.90
2022-10-12T02:24:40.072Z,99.90
2022-10-12T02:27:10.085Z,99.90
2022-10-12T02:29:39.842Z,99.90
2022-10-12T02:32:50.210Z,99.90
2022-10-12T02:35:32.039Z,99.90
2022-10-12T02:38:13.926Z,99.90
2022-10-12T02:40:51.124Z,99.90
2022-10-12T02:43:41.285Z,99.90
2022-10-12T02:46:10.504Z,99.90
2022-10-12T02:48:40.132Z,99.90
2022-10-12T02:51:08.701Z,99.90
2022-10-12T02:53:36.072Z,99.90
2022-10-12T02:56:10.729Z,99.90
2022-10-12T02:58:37.629Z,99.90
2022-10-12T03:01:05.100Z,99.90
2022-10-12T03:03:31.963Z,99.90
2022-10-12T03:05:59.002Z,99.90
2022-10-12T03:08:25.978Z,99.90
2022-10-12T03:10:52.695Z,99.90
2022-10-12T03:13:19.653Z,99.90
2022-10-12T03:15:46.427Z,99.90
2022-10-12T03:18:13.268Z,99.90
2022-10-12T03:20:39.946Z,99.90
2022-10-12T03:23:06.662Z,99.90
2022-10-12T03:25:33.499Z,99.90
2022-10-12T03:28:00.201Z,99.90
2022-10-12T03:30:26.971Z,99.90
2022-10-12T03:32:53.694Z,99.90
2022-10-12T03:35:20.385Z,99.90
2022-10-12T03:37:47.273Z,99.90
2022-10-12T03:40:14.404Z,99.90
2022-10-12T03:42:41.345Z,99.90
2022-10-12T03:45:09.246Z,99.90
2022-10-12T03:47:36.450Z,99.90
2022-10-12T03:50:04.052Z,99.90
2022-10-12T03:52:30.744Z,99.90
2022-10-12T03:54:57.670Z,99.90
2022-10-12T03:57:24.453Z,99.90
2022-10-12T03:59:51.418Z,99.90
2022-10-12T04:02:18.219Z,99.90
2022-10-12T04:04:44.914Z,99.90
2022-10-12T04:07:11.772Z,99.90
2022-10-12T04:09:38.525Z,99.90
2022-10-12T04:12:05.423Z,99.90
2022-10-12T04:14:32.089Z,99.90
2022-10-12T04:16:58.808Z,99.90
2022-10-12T04:19:25.494Z,99.90
2022-10-12T04:21:52.196Z,99.90
2022-10-12T04:24:19.189Z,99.90
2022-10-12T04:26:46.232Z,99.90
2022-10-12T04:29:14.340Z,99.90
2022-10-12T04:31:41.353Z,99.90
2022-10-12T04:34:09.849Z,99.90
2022-10-12T04:36:36.614Z,99.90
2022-10-12T04:39:03.559Z,99.90
2022-10-12T04:41:30.249Z,99.90
2022-10-12T04:43:57.070Z,99.90
2022-10-12T04:46:23.841Z,99.90
2022-10-12T04:48:50.511Z,99.90
2022-10-12T04:51:17.463Z,99.90
2022-10-12T04:53:44.291Z,99.90
2022-10-12T04:56:11.141Z,99.90
2022-10-12T04:58:37.919Z,99.90
2022-10-12T05:01:04.857Z,99.90
2022-10-12T05:03:31.829Z,99.90
2022-10-12T05:05:58.552Z,99.90
2022-10-12T05:08:25.617Z,99.90
2022-10-12T05:10:52.406Z,99.90
2022-10-12T05:13:19.322Z,99.90
2022-10-12T05:15:46.101Z,99.90
2022-10-12T05:18:12.887Z,99.90
2022-10-12T05:20:39.749Z,99.90
2022-10-12T05:23:06.423Z,99.90
2022-10-12T05:25:35.311Z,99.90
2022-10-12T05:28:02.260Z,99.90
2022-10-12T05:30:29.233Z,99.90
2022-10-12T05:32:55.953Z,99.90
2022-10-12T05:35:22.595Z,99.90
2022-10-12T05:37:49.590Z,99.90
2022-10-12T05:40:16.815Z,99.90
2022-10-12T05:42:44.661Z,99.90
2022-10-12T05:45:12.594Z,99.90
2022-10-12T05:47:40.668Z,99.90
2022-10-12T05:50:08.100Z,99.90
2022-10-12T05:52:34.951Z,99.90
2022-10-12T05:55:01.732Z,99.90
2022-10-12T05:57:28.493Z,99.90
2022-10-12T05:59:55.317Z,99.90
2022-10-12T06:02:22.083Z,99.90
2022-10-12T06:04:48.930Z,99.90
2022-10-12T06:07:15.748Z,99.90
2022-10-12T06:09:44.658Z,99.90
2022-10-12T06:12:11.421Z,99.90
2022-10-12T06:14:38.140Z,99.90
2022-10-12T06:17:04.883Z,99.90
2022-10-12T06:19:31.535Z,99.90
2022-10-12T06:21:58.518Z,99.90
2022-10-12T06:24:25.321Z,99.90
2022-10-12T06:26:51.979Z,99.90
2022-10-12T06:29:18.908Z,99.90
2022-10-12T06:31:51.194Z,99.90
2022-10-12T06:34:18.547Z,99.90
2022-10-12T06:36:45.491Z,99.90
2022-10-12T06:39:12.433Z,99.90
2022-10-12T06:41:39.126Z,99.90
2022-10-12T06:44:06.230Z,99.90
2022-10-12T06:46:33.048Z,99.90
2022-10-12T06:48:59.686Z,99.90
2022-10-12T06:51:26.419Z,99.90
2022-10-12T06:53:56.294Z,99.90
2022-10-12T06:56:23.338Z,99.90
2022-10-12T06:58:55.233Z,99.90
2022-10-12T07:01:22.264Z,99.90
2022-10-12T07:03:49.036Z,99.90
2022-10-12T07:06:16.070Z,99.90
2022-10-12T07:08:43.257Z,99.90
2022-10-12T07:11:13.519Z,99.90
2022-10-12T07:13:40.315Z,99.90
2022-10-12T07:16:07.618Z,99.90
2022-10-12T07:18:34.610Z,99.90
2022-10-12T07:21:02.729Z,99.90
2022-10-12T07:23:33.857Z,99.90
2022-10-12T07:26:01.081Z,99.90
2022-10-12T07:28:28.126Z,99.90
2022-10-12T07:30:54.885Z,99.90
2022-10-12T07:33:21.558Z,99.90
2022-10-12T07:36:13.181Z,99.90
2022-10-12T07:38:44.020Z,99.90
2022-10-12T07:41:11.667Z,99.90
2022-10-12T07:43:41.253Z,99.90
2022-10-12T07:46:08.425Z,99.90
2022-10-12T07:48:35.304Z,99.90
2022-10-12T07:51:06.162Z,99.90
2022-10-12T07:53:34.809Z,99.90
2022-10-12T07:56:03.677Z,99.90
2022-10-12T07:58:30.351Z,99.90
2022-10-12T08:01:03.553Z,99.90
2022-10-12T08:03:30.226Z,99.90
2022-10-12T08:05:56.928Z,99.90
2022-10-12T08:08:23.623Z,99.90
2022-10-12T08:10:50.319Z,99.90
2022-10-12T08:13:17.302Z,99.90
2022-10-12T08:15:52.158Z,99.90
2022-10-12T08:18:18.912Z,99.90
2022-10-12T08:20:45.621Z,99.90
2022-10-12T08:23:12.287Z,99.90
2022-10-12T08:25:39.066Z,99.90
2022-10-12T08:28:06.335Z,99.90
2022-10-12T08:30:33.845Z,99.90
2022-10-12T08:33:00.547Z,99.90
2022-10-12T08:35:27.275Z,99.90
2022-10-12T08:37:54.469Z,99.90
2022-10-12T08:40:32.040Z,99.90
2022-10-12T08:43:37.255Z,99.90
2022-10-12T08:46:05.863Z,99.90
2022-10-12T08:49:21.520Z,99.90
2022-10-12T08:51:56.706Z,99.50
2022-10-12T08:54:26.189Z,99.30
2022-10-12T08:56:57.110Z,99.40
2022-10-12T08:59:24.067Z,99.10
2022-10-12T09:01:56.892Z,98.10
2022-10-12T09:04:54.021Z,97.90
2022-10-12T09:07:31.910Z,98.50
2022-10-12T09:10:13.679Z,98.10
2022-10-12T09:13:23.105Z,97.20
2022-10-12T09:15:59.957Z,97.70
2022-10-12T09:18:41.078Z,96.30
2022-10-12T09:21:14.155Z,96.40
2022-10-12T09:23:42.563Z,97.00
2022-10-12T09:26:35.786Z,95.20
2022-10-12T09:29:13.842Z,92.70
2022-10-12T09:31:51.974Z,92.80
2022-10-12T09:34:19.619Z,91.00
2022-10-12T09:36:46.570Z,91.10
2022-10-12T09:39:18.751Z,90.10
2022-10-12T09:41:47.192Z,91.50
2022-10-12T09:44:16.887Z,88.50
2022-10-12T09:46:51.241Z,85.90
2022-10-12T09:49:17.982Z,87.80
2022-10-12T09:51:45.951Z,88.00
2022-10-12T09:54:21.818Z,87.80
2022-10-12T09:56:51.262Z,88.10
2022-10-12T09:59:35.020Z,87.40
2022-10-12T10:02:13.435Z,85.50
2022-10-12T10:04:41.430Z,78.90
2022-10-12T10:07:33.735Z,77.00
2022-10-12T10:10:10.296Z,69.60
2022-10-12T10:12:58.298Z,74.20
2022-10-12T10:15:35.594Z,69.80
2022-10-12T10:18:07.493Z,69.20
2022-10-12T10:20:44.949Z,67.40
2022-10-12T10:23:27.690Z,65.50
2022-10-12T10:26:07.052Z,67.10
2022-10-12T10:28:39.329Z,63.30
2022-10-12T10:31:21.917Z,62.80
2022-10-12T10:34:07.393Z,68.00
2022-10-12T10:36:40.454Z,67.80
2022-10-12T10:39:17.900Z,69.90
2022-10-12T10:41:45.017Z,67.00
2022-10-12T10:44:32.538Z,67.10
2022-10-12T10:47:04.125Z,64.40
2022-10-12T10:49:39.914Z,62.70
2022-10-12T10:52:18.182Z,60.20
2022-10-12T10:54:45.598Z,60.20
2022-10-12T10:57:22.967Z,57.20
2022-10-12T11:00:19.478Z,56.80
2022-10-12T11:02:54.426Z,56.10
2022-10-12T11:05:33.733Z,56.70
2022-10-12T11:08:06.196Z,53.10
2022-10-12T11:10:36.087Z,56.20
2022-10-12T11:13:10.611Z,54.60
2022-10-12T11:15:48.467Z,55.30
2022-10-12T11:18:18.845Z,52.60
2022-10-12T11:21:02.642Z,53.80
2022-10-12T11:23:41.459Z,54.30
2022-10-12T11:26:31.535Z,54.30
2022-10-12T11:29:00.550Z,53.40
2022-10-12T11:31:38.073Z,53.20
2022-10-12T11:34:13.283Z,52.30
2022-10-12T11:37:01.119Z,51.50
2022-10-12T11:39:39.782Z,53.10
2022-10-12T11:42:22.833Z,53.90
2022-10-12T11:44:50.548Z,54.30
2022-10-12T11:47:35.933Z,55.30
2022-10-12T11:50:28.559Z,55.00
2022-10-12T11:52:57.877Z,57.20
2022-10-12T11:55:32.227Z,56.50
2022-10-12T11:58:07.395Z,57.00
2022-10-12T12:01:09.402Z,54.80
2022-10-12T12:04:40.682Z,53.40
2022-10-12T12:07:40.935Z,56.20
2022-10-12T12:10:25.825Z,54.10
2022-10-12T12:13:14.537Z,55.00
2022-10-12T12:16:13.403Z,55.00
2022-10-12T12:19:14.193Z,55.20
2022-10-12T12:22:19.440Z,54.50
2022-10-12T12:25:14.206Z,55.10
2022-10-12T12:27:42.334Z,52.90
2022-10-12T12:30:18.062Z,54.00
2022-10-12T12:32:54.790Z,53.40
2022-10-12T12:35:31.687Z,54.80
2022-10-12T12:38:26.258Z,56.90
2022-10-12T12:41:07.122Z,55.70
2022-10-12T12:43:33.715Z,52.50
2022-10-12T12:46:03.395Z,50.40
2022-10-12T12:48:39.257Z,49.50
2022-10-12T12:51:25.029Z,48.20
2022-10-12T12:54:30.038Z,48.50
2022-10-12T12:57:14.873Z,48.60
2022-10-12T13:00:06.575Z,49.20
2022-10-12T13:03:02.019Z,49.20
2022-10-12T13:06:12.862Z,48.80
2022-10-12T13:09:20.835Z,46.80
2022-10-12T13:12:00.600Z,45.40
2022-10-12T13:15:02.055Z,44.90
2022-10-12T13:17:51.261Z,45.10
2022-10-12T13:20:22.248Z,44.60
2022-10-12T13:22:51.834Z,44.40
2022-10-12T13:25:34.714Z,46.50
2022-10-12T13:28:06.037Z,44.90
2022-10-12T13:30:35.808Z,45.40
2022-10-12T13:33:02.695Z,44.70
2022-10-12T13:35:51.326Z,44.40
2022-10-12T13:38:27.413Z,42.50
2022-10-12T13:41:08.324Z,38.30
2022-10-12T13:44:00.939Z,36.00
2022-10-12T13:46:44.563Z,33.60
2022-10-12T13:49:24.845Z,32.20
2022-10-12T13:51:57.558Z,31.30
2022-10-12T13:54:48.973Z,30.50
2022-10-12T13:57:21.552Z,29.60
2022-10-12T13:59:56.318Z,29.20
2022-10-12T14:02:26.255Z,28.20
2022-10-12T14:04:55.183Z,27.50
2022-10-12T14:07:30.155Z,27.40
2022-10-12T14:10:18.511Z,28.20
2022-10-12T14:12:46.863Z,29.60
2022-10-12T14:15:14.945Z,30.60
2022-10-12T14:17:47.098Z,31.40
2022-10-12T14:20:30.737Z,33.20
2022-10-12T14:22:59.864Z,34.30
2022-10-12T14:25:31.520Z,36.10
2022-10-12T14:28:03.680Z,37.30
2022-10-12T14:30:36.775Z,39.10
2022-10-12T14:33:13.906Z,39.80
2022-10-12T14:35:51.824Z,41.60
2022-10-12T14:38:41.837Z,43.20
2022-10-12T14:41:36.197Z,44.30
2022-10-12T14:44:23.294Z,45.90
2022-10-12T14:46:49.958Z,47.30
2022-10-12T14:49:38.930Z,49.10
2022-10-12T14:52:06.255Z,49.30
2022-10-12T14:54:32.939Z,50.30
2022-10-12T14:57:13.455Z,51.40
2022-10-12T14:59:40.623Z,52.80
2022-10-12T15:02:21.438Z,53.40
2022-10-12T15:04:49.173Z,54.90
2022-10-12T15:07:32.735Z,55.10
2022-10-12T15:10:00.520Z,56.10
2022-10-12T15:12:30.441Z,56.20
2022-10-12T15:15:01.161Z,57.40
2022-10-12T15:17:28.067Z,57.70
2022-10-12T15:19:54.793Z,58.70
2022-10-12T15:22:23.698Z,58.00
2022-10-12T15:24:51.805Z,58.60
2022-10-12T15:27:19.571Z,60.30
2022-10-12T15:29:48.103Z,61.70
2022-10-12T15:32:17.102Z,64.20
2022-10-12T15:34:46.810Z,65.00
2022-10-12T15:37:14.139Z,66.40
2022-10-12T15:39:42.667Z,68.70
2022-10-12T15:42:11.923Z,70.70
2022-10-12T15:44:41.185Z,73.90
2022-10-12T15:47:09.898Z,75.20
2022-10-12T15:49:36.823Z,76.90
2022-10-12T15:52:03.637Z,79.20
2022-10-12T15:54:30.379Z,81.40
2022-10-12T15:56:57.144Z,84.00
2022-10-12T15:59:24.748Z,87.20
2022-10-12T16:01:51.617Z,90.40
2022-10-12T16:04:19.112Z,90.80
2022-10-12T16:06:45.831Z,90.60
2022-10-12T16:09:12.832Z,92.10
2022-10-12T16:11:39.596Z,92.40
2022-10-12T16:14:06.721Z,93.00
2022-10-12T16:16:33.703Z,94.00
2022-10-12T16:19:00.625Z,94.70
2022-10-12T16:21:27.518Z,95.60
2022-10-12T16:23:54.265Z,97.20
2022-10-12T16:26:21.122Z,97.80
2022-10-12T16:28:47.911Z,97.30
2022-10-12T16:31:17.713Z,97.60
2022-10-12T16:33:45.063Z,98.70
2022-10-12T16:36:14.940Z,99.60
2022-10-12T16:38:42.728Z,99.80
2022-10-12T16:41:11.744Z,99.90
2022-10-12T16:43:39.146Z,99.90
2022-10-12T16:46:06.723Z,99.90
2022-10-12T16:48:34.151Z,99.90
2022-10-12T16:51:00.862Z,99.90
2022-10-12T16:53:27.681Z,99.90
2022-10-12T16:55:54.467Z,99.90
2022-10-12T16:58:21.660Z,99.90
2022-10-12T17:00:48.613Z,99.90
2022-10-12T17:03:15.475Z,99.90
2022-10-12T17:05:42.790Z,99.90
2022-10-12T17:08:15.065Z,99.90
2022-10-12T17:10:43.942Z,99.90
2022-10-12T17:13:13.435Z,99.90
2022-10-12T17:15:41.913Z,99.90
2022-10-12T17:18:09.040Z,99.90
2022-10-12T17:20:36.819Z,99.90
2022-10-12T17:23:03.774Z,99.90
2022-10-12T17:25:30.682Z,99.90
2022-10-12T17:27:57.826Z,99.90
2022-10-12T17:30:25.046Z,99.90
2022-10-12T17:32:51.813Z,99.90
2022-10-12T17:35:18.599Z,99.90
2022-10-12T17:37:45.378Z,99.90
2022-10-12T17:40:12.884Z,99.90
2022-10-12T17:42:39.588Z,99.90
2022-10-12T17:45:06.870Z,99.90
2022-10-12T17:47:33.696Z,99.90
2022-10-12T17:50:00.642Z,99.90
2022-10-12T17:52:27.485Z,99.90
2022-10-12T17:54:54.243Z,99.90
2022-10-12T17:57:21.260Z,99.90
2022-10-12T17:59:48.180Z,99.90
2022-10-12T18:02:14.953Z,99.90
2022-10-12T18:04:41.803Z,99.90
2022-10-12T18:07:08.546Z,99.90
2022-10-12T18:09:35.346Z,99.90
2022-10-12T18:12:02.158Z,99.90
2022-10-12T18:14:29.005Z,99.90
2022-10-12T18:16:57.576Z,99.90
2022-10-12T18:19:25.046Z,99.90
2022-10-12T18:21:51.807Z,99.90
2022-10-12T18:24:18.778Z,99.90
2022-10-12T18:26:47.325Z,99.90
2022-10-12T18:29:14.524Z,99.90
2022-10-12T18:31:41.772Z,99.90
2022-10-12T18:34:08.956Z,99.90
2022-10-12T18:36:35.730Z,99.90
2022-10-12T18:39:03.984Z,99.90
2022-10-12T18:41:31.408Z,99.90
2022-10-12T18:43:59.703Z,99.90
2022-10-12T18:46:28.538Z,99.90
2022-10-12T18:48:56.161Z,99.90
2022-10-12T18:51:26.687Z,99.90
2022-10-12T18:53:54.197Z,99.90
2022-10-12T18:56:21.274Z,99.90
2022-10-12T18:58:48.646Z,99.90
2022-10-12T19:01:18.440Z,99.90
2022-10-12T19:03:45.990Z,99.90
2022-10-12T19:06:16.059Z,99.90
2022-10-12T19:08:45.632Z,99.90
2022-10-12T19:11:14.183Z,99.90
2022-10-12T19:13:41.788Z,99.90
2022-10-12T19:16:13.780Z,99.90
2022-10-12T19:18:41.708Z,99.90
2022-10-12T19:21:14.151Z,99.90
2022-10-12T19:23:41.434Z,99.90
2022-10-12T19:26:11.032Z,99.90
2022-10-12T19:28:38.248Z,99.90
2022-10-12T19:31:14.440Z,99.90
2022-10-12T19:33:42.213Z,99.90
2022-10-12T19:36:10.814Z,99.90
2022-10-12T19:38:38.188Z,99.90
2022-10-12T19:41:05.132Z,99.90
2022-10-12T19:43:39.150Z,99.90
2022-10-12T19:46:11.949Z,99.90
2022-10-12T19:48:39.937Z,99.90
2022-10-12T19:51:10.774Z,99.90
2022-10-12T19:53:38.727Z,99.90
2022-10-12T19:56:08.734Z,99.90
2022-10-12T19:58:35.836Z,99.90
2022-10-12T20:01:02.586Z,99.90
2022-10-12T20:03:29.743Z,99.90
2022-10-12T20:05:56.624Z,99.90
2022-10-12T20:08:23.707Z,99.90
2022-10-12T20:10:50.433Z,99.90
2022-10-12T20:13:17.152Z,99.90
2022-10-12T20:15:51.362Z,99.90
2022-10-12T20:18:19.360Z,99.90
2022-10-12T20:20:46.200Z,99.90
2022-10-12T20:23:13.292Z,99.90
2022-10-12T20:25:45.307Z,99.90
2022-10-12T20:28:15.629Z,99.90
2022-10-12T20:30:42.773Z,99.90
2022-10-12T20:33:10.129Z,99.90
2022-10-12T20:35:37.244Z,99.90
2022-10-12T20:38:04.305Z,99.90
2022-10-12T20:40:31.083Z,99.90
2022-10-12T20:42:57.843Z,99.90
2022-10-12T20:45:24.637Z,99.90
2022-10-12T20:47:51.407Z,99.90
2022-10-12T20:50:18.322Z,99.90
2022-10-12T20:52:46.723Z,99.90
2022-10-12T20:55:13.618Z,99.90
2022-10-12T20:57:40.296Z,99.90
2022-10-12T21:00:07.772Z,99.90
2022-10-12T21:02:34.541Z,99.90
2022-10-12T21:05:01.277Z,99.90
2022-10-12T21:07:28.197Z,99.90
2022-10-12T21:09:54.895Z,99.90
2022-10-12T21:12:21.923Z,99.90
2022-10-12T21:14:48.785Z,99.90
2022-10-12T21:17:15.995Z,99.90
2022-10-12T21:19:42.746Z,99.90
2022-10-12T21:22:10.102Z,99.90
2022-10-12T21:24:36.952Z,99.90
2022-10-12T21:27:04.856Z,99.90
2022-10-12T21:29:31.510Z,99.90
2022-10-12T21:31:58.319Z,99.90
2022-10-12T21:34:25.219Z,99.90
2022-10-12T21:36:51.986Z,99.90
2022-10-12T21:39:18.687Z,99.90
2022-10-12T21:41:45.471Z,99.90
2022-10-12T21:44:12.783Z,99.90
2022-10-12T21:46:40.187Z,99.90
2022-10-12T21:49:08.360Z,99.90
2022-10-12T21:51:36.734Z,99.90
2022-10-12T21:54:05.026Z,99.90
2022-10-12T21:56:35.121Z,99.90
2022-10-12T21:59:03.095Z,99.90
2022-10-12T22:01:35.422Z,99.90
2022-10-12T22:04:05.227Z,99.90
2022-10-12T22:06:32.570Z,99.90
2022-10-12T22:09:05.710Z,99.90
2022-10-12T22:11:34.335Z,99.90
2022-10-12T22:14:05.158Z,99.90
2022-10-12T22:16:32.580Z,99.90
2022-10-12T22:19:01.250Z,99.90
2022-10-12T22:21:30.291Z,99.90
2022-10-12T22:23:57.115Z,99.90
2022-10-12T22:26:24.770Z,99.90
2022-10-12T22:28:51.541Z,99.90
2022-10-12T22:31:19.715Z,99.90
2022-10-12T22:33:46.711Z,99.90
2022-10-12T22:36:14.672Z,99.90
2022-10-12T22:38:41.874Z,99.90
2022-10-12T22:41:14.951Z,99.90
2022-10-12T22:43:41.958Z,99.90
2022-10-12T22:46:08.769Z,99.90
2022-10-12T22:48:36.808Z,99.90
2022-10-12T22:51:05.082Z,99.90
2022-10-12T22:53:32.477Z,99.90
2022-10-12T22:56:01.617Z,99.90
2022-10-12T22:58:29.305Z,99.90
2022-10-12T23:01:07.767Z,99.90
2022-10-12T23:03:35.508Z,99.90
2022-10-12T23:06:02.844Z,99.90
2022-10-12T23:08:29.656Z,99.90
2022-10-12T23:11:04.786Z,99.90
2022-10-12T23:13:32.800Z,99.90
2022-10-12T23:16:11.538Z,99.90
2022-10-12T23:18:39.089Z,99.90
2022-10-12T23:21:08.160Z,99.90
2022-10-12T23:23:36.300Z,99.90
2022-10-12T23:26:09.178Z,99.90
2022-10-12T23:28:36.141Z,99.90
2022-10-12T23:31:04.935Z,99.90
2022-10-12T23:33:31.992Z,99.90
2022-10-12T23:36:05.844Z,99.90
2022-10-12T23:38:34.120Z,99.90
2022-10-12T23:41:00.973Z,99.90
2022-10-12T23:43:27.969Z,99.90
2022-10-12T23:45:55.466Z,99.90
2022-10-12T23:48:23.261Z,99.90
2022-10-12T23:50:51.770Z,99.90
2022-10-12T23:53:20.070Z,99.90
2022-10-12T23:55:47.240Z,99.90
2022-10-12T23:58:14.531Z,99.90
